createdAt,value
2022-11-29T00:01:30.217Z,93896.84
2022-11-29T00:03:58.256Z,93892.16
2022-11-29T00:06:27.522Z,93896.84
2022-11-29T00:08:56.282Z,93890.09
2022-11-29T00:11:45.648Z,93889.91
2022-11-29T00:14:16.322Z,93896.97
2022-11-29T00:16:43.762Z,93898.25
2022-11-29T00:19:13.022Z,93894.53
2022-11-29T00:21:39.737Z,93889.81
2022-11-29T00:24:06.891Z,93893.13
2022-11-29T00:26:33.855Z,93885.59
2022-11-29T00:29:00.571Z,93890.59
2022-11-29T00:31:33.821Z,93892.34
2022-11-29T00:34:02.946Z,93888.31
2022-11-29T00:36:30.594Z,93888.81
2022-11-29T00:38:57.425Z,93892.44
2022-11-29T00:41:24.201Z,93888.22
2022-11-29T00:43:51.050Z,93894.91
2022-11-29T00:46:17.800Z,93867.81
2022-11-29T00:48:44.554Z,93894.59
2022-11-29T00:51:11.702Z,93885.38
2022-11-29T00:53:39.120Z,93890.97
2022-11-29T00:56:06.358Z,93874.25
2022-11-29T00:58:33.481Z,93887.91
2022-11-29T01:01:00.195Z,93884.28
2022-11-29T01:03:27.137Z,93873.59
2022-11-29T01:06:00.895Z,93889.59
2022-11-29T01:08:27.727Z,93886.94
2022-11-29T01:11:12.766Z,93891.56
2022-11-29T01:13:40.748Z,93895.28
2022-11-29T01:16:07.941Z,93890.78
2022-11-29T01:18:35.234Z,93888.91
2022-11-29T01:21:09.230Z,93883.41
2022-11-29T01:23:37.172Z,93895.69
2022-11-29T01:26:25.619Z,93888.97
2022-11-29T01:28:54.485Z,93882.88
2022-11-29T01:31:26.860Z,93887.09
2022-11-29T01:33:54.941Z,93894.19
2022-11-29T01:36:22.122Z,93885.91
2022-11-29T01:38:49.412Z,93891.53
2022-11-29T01:41:20.636Z,93890.94
2022-11-29T01:44:07.849Z,93896.44
2022-11-29T01:46:37.732Z,93893.00
2022-11-29T01:49:10.562Z,93896.25
2022-11-29T01:51:40.444Z,93892.84
2022-11-29T01:54:08.683Z,93887.81
2022-11-29T01:56:36.126Z,93898.63
2022-11-29T01:59:06.214Z,93890.97
2022-11-29T02:01:34.666Z,93887.91
2022-11-29T02:04:01.831Z,93894.22
2022-11-29T02:06:29.852Z,93896.28
2022-11-29T02:08:56.674Z,93892.63
2022-11-29T02:11:46.856Z,93888.13
2022-11-29T02:14:38.389Z,93887.81
2022-11-29T02:17:17.004Z,93889.69
2022-11-29T02:20:21.236Z,93888.22
2022-11-29T02:23:06.692Z,93888.31
2022-11-29T02:25:57.415Z,93885.47
2022-11-29T02:28:27.152Z,93888.03
2022-11-29T02:31:08.815Z,93885.56
2022-11-29T02:33:56.887Z,93894.22
2022-11-29T02:37:08.573Z,93892.06
2022-11-29T02:40:04.670Z,93876.63
2022-11-29T02:42:56.089Z,93893.88
2022-11-29T02:45:54.547Z,93887.69
2022-11-29T02:48:58.552Z,93893.19
2022-11-29T02:51:59.041Z,93894.63
2022-11-29T02:54:33.467Z,93893.25
2022-11-29T02:57:39.052Z,93877.84
2022-11-29T03:00:24.026Z,93894.34
2022-11-29T03:03:12.309Z,93900.13
2022-11-29T03:05:48.522Z,93896.88
2022-11-29T03:08:40.084Z,93896.88
2022-11-29T03:11:18.867Z,93902.78
2022-11-29T03:14:19.669Z,93900.25
2022-11-29T03:16:51.710Z,93898.50
2022-11-29T03:19:41.181Z,93900.38
2022-11-29T03:22:23.227Z,93912.56
2022-11-29T03:24:59.064Z,93904.88
2022-11-29T03:27:38.918Z,93906.75
2022-11-29T03:30:08.633Z,93906.84
2022-11-29T03:32:48.477Z,93904.41
2022-11-29T03:35:20.790Z,93913.69
2022-11-29T03:38:03.838Z,93911.97
2022-11-29T03:40:49.281Z,93916.00
2022-11-29T03:43:26.841Z,93913.16
2022-11-29T03:46:18.834Z,93917.06
2022-11-29T03:48:53.155Z,93919.53
2022-11-29T03:51:26.272Z,93918.56
2022-11-29T03:54:08.112Z,93924.84
2022-11-29T03:56:38.970Z,93917.47
2022-11-29T03:59:29.078Z,93923.06
2022-11-29T04:02:20.235Z,93912.94
2022-11-29T04:04:55.679Z,93917.47
2022-11-29T04:07:44.405Z,93911.69
2022-11-29T04:10:40.488Z,93916.88
2022-11-29T04:13:07.186Z,93915.50
2022-11-29T04:16:04.917Z,93918.66
2022-11-29T04:18:56.143Z,93902.53
2022-11-29T04:21:49.834Z,93915.09
2022-11-29T04:24:52.593Z,93915.28
2022-11-29T04:27:38.242Z,93913.91
2022-11-29T04:30:17.881Z,93918.22
2022-11-29T04:33:33.536Z,93924.50
2022-11-29T04:36:26.961Z,93930.81
2022-11-29T04:39:13.726Z,93930.81
2022-11-29T04:41:46.709Z,93932.88
2022-11-29T04:44:31.663Z,93929.41
2022-11-29T04:47:21.305Z,93937.88
2022-11-29T04:50:14.500Z,93943.53
2022-11-29T04:53:14.638Z,93942.34
2022-11-29T04:55:45.820Z,93940.50
2022-11-29T04:58:36.191Z,93938.81
2022-11-29T05:01:09.947Z,93944.91
2022-11-29T05:03:47.016Z,93941.66
2022-11-29T05:06:59.233Z,93949.94
2022-11-29T05:09:59.547Z,93942.34
2022-11-29T05:13:34.103Z,93955.78
2022-11-29T05:16:24.061Z,93937.19
2022-11-29T05:19:08.537Z,93946.63
2022-11-29T05:22:03.054Z,93946.50
2022-11-29T05:24:53.115Z,93952.00
2022-11-29T05:27:51.085Z,93946.41
2022-11-29T05:30:23.614Z,93952.50
2022-11-29T05:33:14.663Z,93952.31
2022-11-29T05:35:53.421Z,93947.88
2022-11-29T05:39:02.015Z,93960.75
2022-11-29T05:41:28.612Z,93960.75
2022-11-29T05:44:01.415Z,93968.75
2022-11-29T05:47:03.888Z,93961.06
2022-11-29T05:49:38.103Z,93960.97
2022-11-29T05:52:26.644Z,93969.38
2022-11-29T05:55:07.452Z,93966.72
2022-11-29T05:57:40.049Z,93974.59
2022-11-29T06:00:09.595Z,93968.19
2022-11-29T06:03:03.779Z,93963.97
2022-11-29T06:05:55.258Z,93971.03
2022-11-29T06:08:36.461Z,93970.53
2022-11-29T06:11:15.976Z,93977.91
2022-11-29T06:14:00.306Z,93974.47
2022-11-29T06:16:51.267Z,93968.19
2022-11-29T06:19:39.573Z,93983.13
2022-11-29T06:22:27.414Z,93985.78
2022-11-29T06:25:01.475Z,93990.31
2022-11-29T06:27:59.099Z,93993.75
2022-11-29T06:30:30.381Z,93987.97
2022-11-29T06:33:12.494Z,93995.81
2022-11-29T06:35:45.716Z,93990.50
2022-11-29T06:38:24.935Z,93996.59
2022-11-29T06:40:54.946Z,93994.53
2022-11-29T06:43:25.912Z,93994.53
2022-11-29T06:46:15.729Z,93998.00
2022-11-29T06:49:03.920Z,94000.34
2022-11-29T06:51:33.555Z,94001.00
2022-11-29T06:54:17.001Z,94008.66
2022-11-29T06:56:52.106Z,94011.31
2022-11-29T06:59:41.898Z,94010.25
2022-11-29T07:02:23.821Z,94016.03
2022-11-29T07:05:09.931Z,94018.09
2022-11-29T07:07:36.995Z,94014.06
2022-11-29T07:10:06.074Z,94018.59
2022-11-29T07:12:34.367Z,94026.75
2022-11-29T07:15:01.310Z,94028.13
2022-11-29T07:17:36.389Z,94028.13
2022-11-29T07:20:24.544Z,94032.88
2022-11-29T07:22:58.751Z,94024.41
2022-11-29T07:25:44.326Z,94039.75
2022-11-29T07:28:38.885Z,94033.34
2022-11-29T07:31:19.895Z,94030.19
2022-11-29T07:34:13.136Z,94037.56
2022-11-29T07:36:49.037Z,94034.28
2022-11-29T07:39:20.110Z,94030.84
2022-11-29T07:41:51.271Z,94034.28
2022-11-29T07:44:46.860Z,94034.63
2022-11-29T07:47:13.816Z,94034.63
2022-11-29T07:49:40.448Z,94028.97
2022-11-29T07:52:07.090Z,94035.88
2022-11-29T07:54:33.731Z,94023.50
2022-11-29T07:57:00.394Z,94043.13
2022-11-29T07:59:27.009Z,94032.50
2022-11-29T08:01:53.681Z,94034.84
2022-11-29T08:04:20.326Z,94038.47
2022-11-29T08:06:47.177Z,94035.53
2022-11-29T08:09:13.853Z,94042.41
2022-11-29T08:11:40.700Z,94047.13
2022-11-29T08:14:07.660Z,94049.47
2022-11-29T08:16:34.341Z,94051.03
2022-11-29T08:19:01.044Z,94045.72
2022-11-29T08:21:28.595Z,94049.84
2022-11-29T08:23:55.481Z,94054.44
2022-11-29T08:26:26.774Z,94055.53
2022-11-29T08:28:56.969Z,94052.66
2022-11-29T08:31:23.642Z,94055.63
2022-11-29T08:33:50.345Z,94060.84
2022-11-29T08:36:19.315Z,94060.06
2022-11-29T08:38:46.951Z,94063.00
2022-11-29T08:41:16.217Z,94060.66
2022-11-29T08:43:43.616Z,94064.69
2022-11-29T08:46:16.678Z,94064.69
2022-11-29T08:48:45.551Z,94070.31
2022-11-29T08:51:12.441Z,94065.19
2022-11-29T08:53:41.990Z,94064.69
2022-11-29T08:56:53.467Z,94069.13
2022-11-29T08:59:00.327Z,94073.97
2022-11-29T09:01:27.042Z,94070.81
2022-11-29T09:03:59.735Z,94076.13
2022-11-29T09:06:28.293Z,94075.84
2022-11-29T09:08:59.347Z,94071.91
2022-11-29T09:11:27.813Z,94077.22
2022-11-29T09:13:58.086Z,94086.00
2022-11-29T09:16:27.545Z,94088.34
2022-11-29T09:18:55.969Z,94084.59
2022-11-29T09:21:24.825Z,94085.09
2022-11-29T09:23:59.300Z,94092.78
2022-11-29T09:26:29.282Z,94094.34
2022-11-29T09:28:57.980Z,94094.34
2022-11-29T09:31:24.712Z,94094.81
2022-11-29T09:33:51.838Z,94098.44
2022-11-29T09:36:23.762Z,94102.38
2022-11-29T09:38:53.364Z,94106.00
2022-11-29T09:41:45.561Z,94104.91
2022-11-29T09:44:16.544Z,94113.97
2022-11-29T09:47:13.511Z,94107.09
2022-11-29T09:49:59.658Z,94103.34
2022-11-29T09:52:37.295Z,94107.09
2022-11-29T09:55:14.924Z,94107.56
2022-11-29T09:57:44.152Z,94108.66
2022-11-29T10:00:22.198Z,94114.78
2022-11-29T10:03:20.502Z,94104.91
2022-11-29T10:05:59.681Z,94103.81
2022-11-29T10:08:36.669Z,94105.69
2022-11-29T10:11:23.995Z,94114.97
2022-11-29T10:14:22.726Z,94112.00
2022-11-29T10:16:56.365Z,94109.34
2022-11-29T10:19:26.222Z,94105.88
2022-11-29T10:22:00.825Z,94098.81
2022-11-29T10:24:29.403Z,94103.81
2022-11-29T10:26:56.640Z,94107.75
2022-11-29T10:29:23.667Z,94112.19
2022-11-29T10:31:50.630Z,94104.50
2022-11-29T10:34:20.273Z,94104.81
2022-11-29T10:36:50.410Z,94108.28
2022-11-29T10:39:24.382Z,94102.94
2022-11-29T10:41:56.712Z,94099.19
2022-11-29T10:44:24.183Z,94106.09
2022-11-29T10:46:52.089Z,94105.63
2022-11-29T10:49:20.897Z,94098.72
2022-11-29T10:51:47.788Z,94099.97
2022-11-29T10:54:23.496Z,94105.00
2022-11-29T10:56:51.731Z,94100.78
2022-11-29T10:59:33.152Z,94095.44
2022-11-29T11:02:01.763Z,94101.38
2022-11-29T11:04:42.887Z,94104.03
2022-11-29T11:07:23.640Z,94106.88
2022-11-29T11:09:55.788Z,94105.31
2022-11-29T11:12:26.198Z,94113.31
2022-11-29T11:15:14.761Z,94099.69
2022-11-29T11:17:58.785Z,94106.75
2022-11-29T11:20:29.076Z,94109.13
2022-11-29T11:23:04.635Z,94102.41
2022-11-29T11:25:40.486Z,94105.56
2022-11-29T11:28:23.676Z,94096.66
2022-11-29T11:31:06.231Z,94095.88
2022-11-29T11:33:35.263Z,94102.47
2022-11-29T11:36:04.297Z,94104.00
2022-11-29T11:38:31.413Z,94106.09
2022-11-29T11:41:12.009Z,94103.13
2022-11-29T11:43:39.701Z,94100.16
2022-11-29T11:46:08.083Z,94106.28
2022-11-29T11:48:35.592Z,94110.81
2022-11-29T11:51:02.346Z,94110.03
2022-11-29T11:53:36.664Z,94107.66
2022-11-29T11:56:10.307Z,94110.13
2022-11-29T11:59:17.176Z,94112.00
2022-11-29T12:01:44.269Z,94111.38
2022-11-29T12:04:22.074Z,94117.97
2022-11-29T12:07:03.023Z,94114.66
2022-11-29T12:09:49.039Z,94124.06
2022-11-29T12:12:21.785Z,94120.91
2022-11-29T12:14:53.488Z,94129.22
2022-11-29T12:17:23.089Z,94127.81
2022-11-29T12:20:01.935Z,94130.63
2022-11-29T12:22:53.036Z,94132.22
2022-11-29T12:25:25.099Z,94135.38
2022-11-29T12:27:52.022Z,94134.47
2022-11-29T12:30:19.364Z,94136.84
2022-11-29T12:33:27.645Z,94138.78
2022-11-29T12:36:14.857Z,94140.94
2022-11-29T12:38:41.516Z,94131.25
2022-11-29T12:41:26.970Z,94138.78
2022-11-29T12:44:30.202Z,94138.91
2022-11-29T12:47:34.754Z,94137.84
2022-11-29T12:50:22.072Z,94141.16
2022-11-29T12:53:07.519Z,94135.81
2022-11-29T12:55:47.031Z,94141.34
2022-11-29T12:58:52.785Z,94140.41
2022-11-29T13:01:26.232Z,94137.88
2022-11-29T13:04:02.322Z,94136.63
2022-11-29T13:06:31.805Z,94136.47
2022-11-29T13:09:37.098Z,94138.06
2022-11-29T13:12:08.363Z,94138.38
2022-11-29T13:14:44.616Z,94142.72
2022-11-29T13:17:39.577Z,94145.88
2022-11-29T13:20:29.602Z,94143.81
2022-11-29T13:23:39.094Z,94149.75
2022-11-29T13:26:13.336Z,94146.00
2022-11-29T13:28:42.621Z,94155.09
2022-11-29T13:31:17.880Z,94155.09
2022-11-29T13:34:10.186Z,94152.13
2022-11-29T13:36:47.964Z,94148.66
2022-11-29T13:39:30.031Z,94159.03
2022-11-29T13:42:25.166Z,94150.06
2022-11-29T13:45:07.989Z,94158.84
2022-11-29T13:47:58.915Z,94158.34
2022-11-29T13:50:41.008Z,94156.03
2022-11-29T13:53:18.151Z,94154.59
2022-11-29T13:55:50.301Z,94159.63
2022-11-29T13:58:39.130Z,94158.06
2022-11-29T14:01:07.657Z,94163.22
2022-11-29T14:03:38.743Z,94168.56
2022-11-29T14:06:21.156Z,94165.56
2022-11-29T14:11:49.233Z,94168.50
2022-11-29T14:14:15.806Z,94168.50
2022-11-29T14:16:42.399Z,94168.50
2022-11-29T14:19:08.978Z,94170.38
2022-11-29T14:22:05.452Z,94174.44
2022-11-29T14:24:32.050Z,94180.06
2022-11-29T14:27:07.907Z,94176.59
2022-11-29T14:29:53.891Z,94173.94
2022-11-29T14:32:30.512Z,94178.28
2022-11-29T14:35:12.304Z,94172.16
2022-11-29T14:38:03.807Z,94179.22
2022-11-29T14:40:42.513Z,94175.75
2022-11-29T14:43:36.753Z,94180.91
2022-11-29T14:46:15.819Z,94188.41
2022-11-29T14:48:56.114Z,94181.00
2022-11-29T14:51:30.015Z,94181.19
2022-11-29T14:54:16.630Z,94189.19
2022-11-29T14:56:45.075Z,94189.97
2022-11-29T14:59:42.923Z,94195.91
2022-11-29T15:02:32.525Z,94191.97
2022-11-29T15:05:13.330Z,94195.91
2022-11-29T15:07:44.736Z,94194.31
2022-11-29T15:10:35.799Z,94203.41
2022-11-29T15:13:04.129Z,94201.81
2022-11-29T15:16:09.368Z,94202.44
2022-11-29T15:19:13.413Z,94202.69
2022-11-29T15:22:07.307Z,94199.53
2022-11-29T15:25:00.224Z,94198.56
2022-11-29T15:27:26.943Z,94203.88
2022-11-29T15:29:53.656Z,94206.25
2022-11-29T15:32:30.894Z,94205.25
2022-11-29T15:34:58.597Z,94205.56
2022-11-29T15:37:34.327Z,94205.56
2022-11-29T15:40:03.612Z,94212.47
2022-11-29T15:42:43.700Z,94225.75
2022-11-29T15:45:34.422Z,94224.47
2022-11-29T15:48:17.835Z,94235.31
2022-11-29T15:50:55.897Z,94227.34
2022-11-29T15:53:35.682Z,94227.94
2022-11-29T15:56:09.048Z,94235.72
2022-11-29T15:58:36.722Z,94231.81
2022-11-29T16:01:04.139Z,94234.78
2022-11-29T16:03:34.656Z,94235.06
2022-11-29T16:06:08.362Z,94243.53
2022-11-29T16:08:41.955Z,94239.59
2022-11-29T16:11:15.241Z,94247.88
2022-11-29T16:13:43.133Z,94244.44
2022-11-29T16:16:12.110Z,94246.81
2022-11-29T16:18:41.095Z,94252.13
2022-11-29T16:21:22.669Z,94242.56
2022-11-29T16:23:49.421Z,94248.47
2022-11-29T16:26:19.824Z,94255.97
2022-11-29T16:28:49.542Z,94257.34
2022-11-29T16:31:22.373Z,94254.00
2022-11-29T16:33:51.424Z,94251.78
2022-11-29T16:36:28.976Z,94259.16
2022-11-29T16:39:04.247Z,94259.31
2022-11-29T16:41:36.130Z,94262.47
2022-11-29T16:44:05.561Z,94263.75
2022-11-29T16:46:34.543Z,94268.28
2022-11-29T16:49:25.328Z,94261.69
2022-11-29T16:51:53.910Z,94259.94
2022-11-29T16:54:23.492Z,94266.34
2022-11-29T16:56:51.948Z,94258.16
2022-11-29T16:59:27.567Z,94270.19
2022-11-29T17:01:55.975Z,94255.50
2022-11-29T17:04:24.684Z,94264.56
2022-11-29T17:06:53.806Z,94266.34
2022-11-29T17:09:25.325Z,94263.47
2022-11-29T17:11:53.137Z,94267.44
2022-11-29T17:14:19.897Z,94272.16
2022-11-29T17:16:49.365Z,94271.38
2022-11-29T17:19:16.433Z,94268.22
2022-11-29T17:21:43.491Z,94276.19
2022-11-29T17:24:13.234Z,94277.19
2022-11-29T17:26:41.100Z,94274.72
2022-11-29T17:29:07.920Z,94282.41
2022-11-29T17:31:34.683Z,94283.00
2022-11-29T17:34:02.060Z,94285.94
2022-11-29T17:36:29.198Z,94290.97
2022-11-29T17:38:55.940Z,94291.28
2022-11-29T17:41:24.406Z,94296.88
2022-11-29T17:43:51.929Z,94299.53
2022-11-29T17:46:27.270Z,94296.88
2022-11-29T17:48:54.306Z,94302.19
2022-11-29T17:51:50.606Z,94310.28
2022-11-29T17:54:11.216Z,94299.13
2022-11-29T17:56:38.068Z,94299.94
2022-11-29T17:59:05.132Z,94309.97
2022-11-29T18:01:34.045Z,94304.66
2022-11-29T18:04:03.317Z,94304.88
2022-11-29T18:06:33.984Z,94304.75
2022-11-29T18:09:01.680Z,94308.19
2022-11-29T18:11:44.990Z,94302.59
2022-11-29T18:14:15.991Z,94295.22
2022-11-29T18:16:45.017Z,94299.13
2022-11-29T18:19:14.064Z,94306.81
2022-11-29T18:21:40.752Z,94306.34
2022-11-29T18:24:07.769Z,94307.63
2022-11-29T18:26:36.356Z,94309.19
2022-11-29T18:29:04.357Z,94300.63
2022-11-29T18:31:36.759Z,94297.97
2022-11-29T18:34:06.977Z,94300.22
2022-11-29T18:36:36.082Z,94295.22
2022-11-29T18:39:08.877Z,94303.50
2022-11-29T18:41:36.611Z,94309.91
2022-11-29T18:44:04.795Z,94307.25
2022-11-29T18:46:32.903Z,94307.63
2022-11-29T18:49:02.301Z,94316.47
2022-11-29T18:51:30.401Z,94324.38
2022-11-29T18:53:58.574Z,94318.25
2022-11-29T18:56:27.605Z,94318.47
2022-11-29T18:58:58.687Z,94323.78
2022-11-29T19:01:28.477Z,94328.31
2022-11-29T19:03:57.480Z,94327.72
2022-11-29T19:06:26.766Z,94325.34
2022-11-29T19:08:54.669Z,94327.72
2022-11-29T19:11:23.784Z,94328.00
2022-11-29T19:13:56.629Z,94329.09
2022-11-29T19:16:24.775Z,94322.19
2022-11-29T19:18:53.501Z,94323.97
2022-11-29T19:21:21.557Z,94329.31
2022-11-29T19:23:56.196Z,94322.69
2022-11-29T19:26:25.332Z,94329.81
2022-11-29T19:28:52.810Z,94330.88
2022-11-29T19:31:23.944Z,94332.75
2022-11-29T19:33:52.447Z,94332.25
2022-11-29T19:36:24.877Z,94337.56
2022-11-29T19:38:54.153Z,94337.88
2022-11-29T19:41:32.992Z,94329.09
2022-11-29T19:44:03.005Z,94338.44
2022-11-29T19:46:33.058Z,94329.47
2022-11-29T19:49:00.840Z,94332.44
2022-11-29T19:51:29.296Z,94331.34
2022-11-29T19:53:58.488Z,94331.34
2022-11-29T19:56:26.541Z,94339.63
2022-11-29T19:58:53.329Z,94341.47
2022-11-29T20:01:23.005Z,94343.56
2022-11-29T20:03:50.030Z,94350.75
2022-11-29T20:06:17.420Z,94354.69
2022-11-29T20:08:44.845Z,94354.47
2022-11-29T20:11:15.342Z,94346.81
2022-11-29T20:13:44.208Z,94348.38
2022-11-29T20:16:13.934Z,94350.44
2022-11-29T20:18:47.250Z,94349.97
2022-11-29T20:21:20.454Z,94354.00
2022-11-29T20:23:47.785Z,94359.09
2022-11-29T20:26:19.475Z,94350.16
2022-11-29T20:28:47.592Z,94357.50
2022-11-29T20:31:21.443Z,94353.50
2022-11-29T20:33:49.596Z,94352.41
2022-11-29T20:36:29.157Z,94350.81
2022-11-29T20:39:24.039Z,94351.13
2022-11-29T20:42:01.296Z,94366.00
2022-11-29T20:44:37.917Z,94366.28
2022-11-29T20:47:16.222Z,94360.97
2022-11-29T20:49:43.091Z,94371.03
2022-11-29T20:52:33.523Z,94367.50
2022-11-29T20:55:00.309Z,94372.22
2022-11-29T20:57:27.044Z,94368.38
2022-11-29T20:59:53.697Z,94373.56
2022-11-29T21:02:20.945Z,94367.63
2022-11-29T21:04:47.942Z,94373.81
2022-11-29T21:07:14.924Z,94373.72
2022-11-29T21:09:41.566Z,94375.66
2022-11-29T21:12:08.842Z,94373.06
2022-11-29T21:14:35.834Z,94368.16
2022-11-29T21:17:02.851Z,94371.09
2022-11-29T21:19:29.804Z,94373.75
2022-11-29T21:22:08.347Z,94377.38
2022-11-29T21:25:17.781Z,94376.91
2022-11-29T21:27:45.781Z,94381.44
2022-11-29T21:30:19.624Z,94380.03
2022-11-29T21:32:47.100Z,94382.34
2022-11-29T21:35:16.105Z,94387.66
2022-11-29T21:37:43.743Z,94381.31
2022-11-29T21:40:12.042Z,94384.78
2022-11-29T21:42:38.739Z,94381.09
2022-11-29T21:45:11.817Z,94382.69
2022-11-29T21:47:42.966Z,94381.50
2022-11-29T21:50:10.404Z,94387.66
2022-11-29T21:52:37.418Z,94390.53
2022-11-29T21:55:05.550Z,94388.47
2022-11-29T21:57:32.227Z,94405.25
2022-11-29T21:59:58.843Z,94400.00
2022-11-29T22:02:25.904Z,94392.66
2022-11-29T22:04:53.083Z,94396.38
2022-11-29T22:07:20.163Z,94398.59
2022-11-29T22:09:47.245Z,94392.78
2022-11-29T22:12:33.080Z,94394.41
2022-11-29T22:15:00.954Z,94400.81
2022-11-29T22:17:27.893Z,94396.00
2022-11-29T22:19:54.537Z,94397.66
2022-11-29T22:22:21.500Z,94397.22
2022-11-29T22:24:48.615Z,94387.19
2022-11-29T22:27:17.863Z,94394.13
2022-11-29T22:29:45.172Z,94403.72
2022-11-29T22:32:11.928Z,94403.69
2022-11-29T22:34:38.593Z,94393.06
2022-11-29T22:37:05.832Z,94394.13
2022-11-29T22:39:32.523Z,94391.97
2022-11-29T22:41:59.172Z,94387.97
2022-11-29T22:44:25.853Z,94393.50
2022-11-29T22:46:52.899Z,94403.91
2022-11-29T22:49:20.019Z,94397.28
2022-11-29T22:51:46.905Z,94397.84
2022-11-29T22:54:16.557Z,94403.78
2022-11-29T22:56:44.540Z,94396.16
2022-11-29T22:59:11.310Z,94389.31
2022-11-29T23:01:40.075Z,94393.25
2022-11-29T23:04:11.366Z,94399.38
2022-11-29T23:06:41.507Z,94402.22
2022-11-29T23:09:21.419Z,94397.78
2022-11-29T23:11:56.409Z,94406.53
2022-11-29T23:14:23.983Z,94399.41
2022-11-29T23:16:51.427Z,94389.81
2022-11-29T23:19:18.192Z,94396.47
2022-11-29T23:21:45.955Z,94393.88
2022-11-29T23:24:14.374Z,94396.03
2022-11-29T23:26:44.830Z,94401.63
2022-11-29T23:29:19.840Z,94411.94
2022-11-29T23:31:48.194Z,94404.50
2022-11-29T23:34:15.330Z,94392.75
2022-11-29T23:36:42.105Z,94382.28
2022-11-29T23:39:09.218Z,94387.19
2022-11-29T23:41:37.009Z,94385.03
2022-11-29T23:44:05.483Z,94388.19
2022-11-29T23:46:32.774Z,94394.28
2022-11-29T23:48:59.521Z,94389.50
2022-11-29T23:51:26.205Z,94388.97
2022-11-29T23:53:53.742Z,94386.69
2022-11-29T23:56:21.540Z,94382.66
2022-11-29T23:58:48.988Z,94383.69
